Time;durP1;ratioP1;P1;durP2;ratioP2;P2;SDS_P1;SDS_P2;PMS_P1;PMS_P2;Temp;Humidity;BMP_temperature;BMP_pressure;BME280_temperature;BME280_humidity;BME280_pressure;Samples;Min_cycle;Max_cycle;Signal;HPM_P1;HPM_P2
2022/04/25 00:01:15;;;;;;;5.80;3.42;;;;;;;;;;5263953;28;20017;-69
2022/04/25 00:03:46;;;;;;;6.15;3.30;;;;;;;;;;5262907;28;20087;-69
2022/04/25 00:06:17;;;;;;;6.78;3.16;;;;;;;;;;5263968;28;20025;-69
2022/04/25 00:08:49;;;;;;;5.38;3.10;;;;;;;;;;5262956;28;20021;-70
2022/04/25 00:11:20;;;;;;;7.53;3.60;;;;;;;;;;5263247;28;20028;-69
2022/04/25 00:13:51;;;;;;;6.68;3.28;;;;;;;;;;5263507;28;20025;-68
2022/04/25 00:16:23;;;;;;;6.47;3.67;;;;;;;;;;5262093;28;20056;-67
2022/04/25 00:18:55;;;;;;;5.38;2.97;;;;;;;;;;5263742;28;20025;-68
2022/04/25 00:21:26;;;;;;;10.18;3.95;;;;;;;;;;5263441;28;20468;-68
2022/04/25 00:23:57;;;;;;;7.47;3.42;;;;;;;;;;5263050;28;20366;-68
2022/04/25 00:26:28;;;;;;;5.22;3.50;;;;;;;;;;5262948;28;20020;-68
2022/04/25 00:29:00;;;;;;;11.10;3.90;;;;;;;;;;5263362;28;20024;-69
2022/04/25 00:31:31;;;;;;;8.32;3.92;;;;;;;;;;5262340;28;20311;-69
2022/04/25 00:34:02;;;;;;;7.32;3.63;;;;;;;;;;5263647;28;20386;-69
2022/04/25 00:36:33;;;;;;;8.56;4.88;;;;;;;;;;5263092;28;20275;-69
2022/04/25 00:39:04;;;;;;;9.60;3.97;;;;;;;;;;5262790;28;20021;-69
2022/04/25 00:41:35;;;;;;;12.25;4.97;;;;;;;;;;5262749;28;20295;-70
2022/04/25 00:44:06;;;;;;;8.52;4.26;;;;;;;;;;5262395;28;20270;-69
2022/04/25 00:46:39;;;;;;;8.82;4.15;;;;;;;;;;5262819;28;20023;-70
2022/04/25 00:49:10;;;;;;;12.07;4.35;;;;;;;;;;5263142;28;20078;-69
2022/04/25 00:51:42;;;;;;;7.88;4.18;;;;;;;;;;5261772;28;20025;-69
2022/04/25 00:54:14;;;;;;;8.13;4.28;;;;;;;;;;5262842;28;20327;-69
2022/04/25 00:56:46;;;;;;;11.32;4.35;;;;;;;;;;5262546;28;20021;-69
2022/04/25 00:59:18;;;;;;;7.93;4.53;;;;;;;;;;5262328;28;20112;-69
2022/04/25 01:01:51;;;;;;;8.05;4.85;;;;;;;;;;5262688;28;20040;-69
2022/04/25 01:04:22;;;;;;;10.07;5.40;;;;;;;;;;5262387;28;20016;-69
2022/04/25 01:06:53;;;;;;;12.02;5.15;;;;;;;;;;5262001;28;20464;-68
2022/04/25 01:09:25;;;;;;;8.40;4.68;;;;;;;;;;5262289;28;20460;-69
2022/04/25 01:11:58;;;;;;;7.82;4.82;;;;;;;;;;5262803;28;20298;-68
2022/04/25 01:14:29;;;;;;;8.88;5.20;;;;;;;;;;5261077;28;20056;-69
2022/04/25 01:17:00;;;;;;;11.27;5.88;;;;;;;;;;5262554;28;20013;-68
2022/04/25 01:19:31;;;;;;;7.65;4.93;;;;;;;;;;5261152;28;20276;-69
2022/04/25 01:22:08;;;;;;;10.05;5.57;;;;;;;;;;5262784;28;20747;-68
2022/04/25 01:27:29;;;;;;;9.75;5.45;;;;;;;;;;5261262;28;20021;-68
2022/04/25 01:30:01;;;;;;;10.38;6.13;;;;;;;;;;5262236;28;20033;-68
2022/04/25 01:32:32;;;;;;;8.73;5.97;;;;;;;;;;5261845;28;20845;-69
2022/04/25 01:35:04;;;;;;;9.98;6.06;;;;;;;;;;5261388;28;20013;-69
2022/04/25 01:37:35;;;;;;;8.32;5.45;;;;;;;;;;5261368;28;20020;-69
2022/04/25 01:40:06;;;;;;;9.25;5.55;;;;;;;;;;5262065;28;20021;-69
2022/04/25 01:42:38;;;;;;;10.75;5.63;;;;;;;;;;5260794;28;20036;-69
2022/04/25 01:45:09;;;;;;;9.34;5.88;;;;;;;;;;5262199;28;20024;-69
2022/04/25 01:47:40;;;;;;;9.77;5.75;;;;;;;;;;5260582;28;20443;-69
2022/04/25 01:50:11;;;;;;;10.07;5.95;;;;;;;;;;5261802;28;20028;-69
2022/04/25 01:52:42;;;;;;;9.20;5.56;;;;;;;;;;5261075;28;20476;-69
2022/04/25 01:55:13;;;;;;;10.23;5.85;;;;;;;;;;5261068;28;20464;-69
2022/04/25 01:57:45;;;;;;;10.13;6.40;;;;;;;;;;5261259;28;20491;-69
2022/04/25 02:00:16;;;;;;;10.23;6.35;;;;;;;;;;5261537;28;20037;-69
2022/04/25 02:02:47;;;;;;;10.52;6.47;;;;;;;;;;5260360;28;20713;-68
2022/04/25 02:05:18;;;;;;;11.95;6.85;;;;;;;;;;5261336;28;20041;-69
2022/04/25 02:07:49;;;;;;;13.12;6.20;;;;;;;;;;5261540;28;20259;-68
2022/04/25 02:10:20;;;;;;;13.23;6.80;;;;;;;;;;5260503;28;20478;-68
2022/04/25 02:12:51;;;;;;;11.12;6.42;;;;;;;;;;5260849;28;20321;-67
2022/04/25 02:15:23;;;;;;;10.04;6.00;;;;;;;;;;5260623;28;20055;-70
2022/04/25 02:17:54;;;;;;;8.00;6.38;;;;;;;;;;5260798;28;20068;-68
2022/04/25 02:20:25;;;;;;;12.20;7.52;;;;;;;;;;5260972;28;20107;-67
2022/04/25 02:22:57;;;;;;;12.50;6.38;;;;;;;;;;5260636;28;20029;-70
2022/04/25 02:25:28;;;;;;;9.20;6.25;;;;;;;;;;5260674;28;20251;-69
2022/04/25 02:27:59;;;;;;;12.52;7.35;;;;;;;;;;5261212;28;20048;-68
2022/04/25 02:30:30;;;;;;;12.80;8.02;;;;;;;;;;5259879;28;20274;-68
2022/04/25 02:33:01;;;;;;;12.20;7.13;;;;;;;;;;5261215;28;20029;-68
2022/04/25 02:35:32;;;;;;;10.82;6.93;;;;;;;;;;5260547;28;20067;-68
2022/04/25 02:38:04;;;;;;;12.26;7.56;;;;;;;;;;5260425;28;20255;-68
2022/04/25 02:40:35;;;;;;;14.65;8.02;;;;;;;;;;5260344;28;20027;-69
2022/04/25 02:43:06;;;;;;;14.20;7.34;;;;;;;;;;5261333;28;20047;-68
2022/04/25 02:45:37;;;;;;;10.70;7.50;;;;;;;;;;5259794;28;20086;-68
2022/04/25 02:48:08;;;;;;;9.38;7.35;;;;;;;;;;5261178;28;20025;-69
2022/04/25 02:50:40;;;;;;;12.93;7.10;;;;;;;;;;5259681;28;20060;-69
2022/04/25 02:53:13;;;;;;;9.82;6.60;;;;;;;;;;5260790;28;20341;-69
2022/04/25 02:55:44;;;;;;;13.45;7.85;;;;;;;;;;5260361;28;20021;-69
2022/04/25 02:58:16;;;;;;;14.25;7.85;;;;;;;;;;5260127;28;20435;-68
2022/04/25 03:00:47;;;;;;;15.32;7.20;;;;;;;;;;5260191;28;20037;-69
2022/04/25 03:03:19;;;;;;;12.82;7.43;;;;;;;;;;5260241;28;20017;-68
2022/04/25 03:05:51;;;;;;;12.43;7.57;;;;;;;;;;5259586;28;20369;-69
2022/04/25 03:08:23;;;;;;;13.20;7.75;;;;;;;;;;5260138;28;20047;-69
2022/04/25 03:10:54;;;;;;;10.27;7.45;;;;;;;;;;5260946;28;20017;-69
2022/04/25 03:13:25;;;;;;;13.52;7.82;;;;;;;;;;5259003;28;20029;-69
2022/04/25 03:15:56;;;;;;;12.68;7.40;;;;;;;;;;5260413;28;20118;-69
2022/04/25 03:18:29;;;;;;;11.22;7.86;;;;;;;;;;5260169;28;20100;-69
2022/04/25 03:21:00;;;;;;;12.70;9.10;;;;;;;;;;5259728;28;20055;-69
2022/04/25 03:23:31;;;;;;;16.05;8.70;;;;;;;;;;5260963;28;20476;-69
2022/04/25 03:26:02;;;;;;;12.85;7.70;;;;;;;;;;5264079;28;20009;-69
2022/04/25 03:28:34;;;;;;;13.20;8.05;;;;;;;;;;5264042;28;20021;-69
2022/04/25 03:31:06;;;;;;;11.07;7.68;;;;;;;;;;5265016;28;20048;-69
2022/04/25 03:33:37;;;;;;;13.15;8.25;;;;;;;;;;5263294;28;20037;-69
2022/04/25 03:36:08;;;;;;;10.98;8.00;;;;;;;;;;5264850;28;20096;-68
2022/04/25 03:38:42;;;;;;;14.43;8.18;;;;;;;;;;5264012;28;20060;-68
2022/04/25 03:41:13;;;;;;;11.95;7.75;;;;;;;;;;5263826;28;20096;-69
2022/04/25 03:43:44;;;;;;;14.20;8.86;;;;;;;;;;5264061;28;20083;-69
2022/04/25 03:46:15;;;;;;;13.60;8.40;;;;;;;;;;5264536;28;20013;-69
2022/04/25 03:48:46;;;;;;;13.58;8.82;;;;;;;;;;5262872;28;20060;-69
2022/04/25 03:51:17;;;;;;;13.90;8.68;;;;;;;;;;5264157;28;20372;-68
2022/04/25 03:53:49;;;;;;;15.27;9.18;;;;;;;;;;5263588;28;20037;-68
2022/04/25 03:59:09;;;;;;;15.57;8.95;;;;;;;;;;5264224;28;20036;-69
2022/04/25 04:01:41;;;;;;;11.32;8.00;;;;;;;;;;5262735;28;20024;-69
2022/04/25 04:04:12;;;;;;;12.75;8.65;;;;;;;;;;5264209;28;20108;-69
2022/04/25 04:06:43;;;;;;;16.38;8.90;;;;;;;;;;5263423;28;20028;-69
2022/04/25 04:12:04;;;;;;;13.85;8.93;;;;;;;;;;5264060;28;20264;-69
2022/04/25 04:14:36;;;;;;;16.23;9.32;;;;;;;;;;5262607;28;20049;-69
2022/04/25 04:17:07;;;;;;;17.35;9.38;;;;;;;;;;5262790;28;20024;-69
2022/04/25 04:19:39;;;;;;;16.48;9.63;;;;;;;;;;5262962;28;20013;-69
2022/04/25 04:22:10;;;;;;;18.48;9.98;;;;;;;;;;5262733;28;20017;-69
2022/04/25 04:24:41;;;;;;;16.88;9.52;;;;;;;;;;5262736;28;20460;-69
2022/04/25 04:27:14;;;;;;;14.93;9.20;;;;;;;;;;5263624;28;20021;-69
2022/04/25 04:29:45;;;;;;;13.57;9.57;;;;;;;;;;5262188;28;20016;-69
2022/04/25 04:32:16;;;;;;;18.40;9.60;;;;;;;;;;5263617;28;20021;-69
2022/04/25 04:34:47;;;;;;;15.98;10.30;;;;;;;;;;5262268;28;20291;-68
2022/04/25 04:37:19;;;;;;;13.82;10.60;;;;;;;;;;5262175;28;20101;-69
2022/04/25 04:39:50;;;;;;;16.12;9.52;;;;;;;;;;5262797;28;20061;-68
2022/04/25 04:42:22;;;;;;;18.50;10.02;;;;;;;;;;5262404;28;20510;-68
2022/04/25 04:44:53;;;;;;;14.63;11.05;;;;;;;;;;5262512;28;20016;-69
2022/04/25 04:47:24;;;;;;;16.02;10.85;;;;;;;;;;5262480;28;20016;-69
2022/04/25 04:49:55;;;;;;;16.05;10.88;;;;;;;;;;5262936;28;20759;-69
2022/04/25 04:52:26;;;;;;;17.25;11.30;;;;;;;;;;5261845;28;20032;-69
2022/04/25 04:54:57;;;;;;;17.63;10.55;;;;;;;;;;5263011;28;20040;-69
2022/04/25 04:57:29;;;;;;;15.98;10.38;;;;;;;;;;5261445;28;20255;-69
2022/04/25 05:00:00;;;;;;;19.14;11.26;;;;;;;;;;5262809;28;20025;-69
2022/04/25 05:02:31;;;;;;;16.40;10.40;;;;;;;;;;5262037;28;20017;-70
2022/04/25 05:05:03;;;;;;;16.27;10.80;;;;;;;;;;5261948;28;20460;-70
2022/04/25 05:07:35;;;;;;;16.25;10.30;;;;;;;;;;5261991;28;20331;-70
2022/04/25 05:10:07;;;;;;;17.27;10.55;;;;;;;;;;5262622;28;20028;-70
2022/04/25 05:12:49;;;;;;;19.20;10.90;;;;;;;;;;5261153;28;20025;-70
2022/04/25 05:15:20;;;;;;;20.40;10.77;;;;;;;;;;5262152;28;20057;-69
2022/04/25 05:17:55;;;;;;;19.83;11.10;;;;;;;;;;5262711;28;20021;-70
2022/04/25 05:20:26;;;;;;;19.58;11.45;;;;;;;;;;5261419;28;20418;-70
2022/04/25 05:22:57;;;;;;;17.08;11.00;;;;;;;;;;5262445;28;20075;-70
2022/04/25 05:25:28;;;;;;;15.57;10.98;;;;;;;;;;5260975;28;20027;-70
2022/04/25 05:28:00;;;;;;;18.50;10.25;;;;;;;;;;5262432;28;20027;-70
2022/04/25 05:30:32;;;;;;;21.05;11.27;;;;;;;;;;5261745;28;20009;-70
2022/04/25 05:33:03;;;;;;;15.57;10.52;;;;;;;;;;5261595;28;20021;-70
2022/04/25 05:35:35;;;;;;;17.25;10.48;;;;;;;;;;5261387;28;20017;-69
2022/04/25 05:38:06;;;;;;;17.63;11.45;;;;;;;;;;5262492;28;20472;-68
2022/04/25 05:40:39;;;;;;;19.80;11.23;;;;;;;;;;5260697;28;20074;-69
2022/04/25 05:43:10;;;;;;;16.25;10.95;;;;;;;;;;5261934;28;20033;-68
2022/04/25 05:45:43;;;;;;;19.08;11.63;;;;;;;;;;5260845;28;20456;-68
2022/04/25 05:53:54;;;;;;;18.35;11.07;;;;;;;;;;5261057;28;20558;-68
2022/04/25 05:56:26;;;;;;;17.73;10.90;;;;;;;;;;5261170;28;20100;-68
2022/04/25 05:58:57;;;;;;;14.57;10.63;;;;;;;;;;5261766;28;20305;-68
2022/04/25 06:01:29;;;;;;;14.08;10.90;;;;;;;;;;5260524;28;20367;-69
2022/04/25 06:04:00;;;;;;;19.08;11.32;;;;;;;;;;5261623;28;20017;-68
2022/04/25 06:06:31;;;;;;;17.30;11.55;;;;;;;;;;5260979;28;20456;-68
2022/04/25 06:09:02;;;;;;;16.65;11.13;;;;;;;;;;5260800;28;20447;-68
2022/04/25 06:11:34;;;;;;;13.82;11.13;;;;;;;;;;5261063;28;20064;-68
2022/04/25 06:14:05;;;;;;;17.55;10.93;;;;;;;;;;5261244;28;20033;-68
2022/04/25 06:16:37;;;;;;;18.75;11.90;;;;;;;;;;5260175;28;20033;-68
2022/04/25 06:19:09;;;;;;;15.54;10.40;;;;;;;;;;5261262;28;20035;-68
2022/04/25 06:21:40;;;;;;;16.77;11.23;;;;;;;;;;5259950;28;20017;-68
2022/04/25 06:24:11;;;;;;;15.65;11.45;;;;;;;;;;5261065;28;20086;-69
2022/04/25 06:26:43;;;;;;;17.20;11.10;;;;;;;;;;5260578;28;20631;-68
2022/04/25 06:29:14;;;;;;;16.17;12.13;;;;;;;;;;5260287;28;20452;-68
2022/04/25 06:31:45;;;;;;;16.12;11.72;;;;;;;;;;5260403;28;20016;-68
2022/04/25 06:34:16;;;;;;;17.35;12.38;;;;;;;;;;5261314;28;20083;-68
2022/04/25 06:36:50;;;;;;;16.30;11.85;;;;;;;;;;5259532;28;20279;-68
2022/04/25 06:39:21;;;;;;;17.17;12.98;;;;;;;;;;5260618;28;20337;-69
2022/04/25 06:41:52;;;;;;;17.08;12.43;;;;;;;;;;5261038;28;20021;-68
2022/04/25 06:44:24;;;;;;;16.52;11.55;;;;;;;;;;5259578;28;20100;-69
2022/04/25 06:46:55;;;;;;;16.02;12.20;;;;;;;;;;5261136;28;20020;-68
2022/04/25 06:49:27;;;;;;;16.40;11.73;;;;;;;;;;5260606;28;20040;-69
2022/04/25 06:51:59;;;;;;;15.20;11.75;;;;;;;;;;5259955;28;20738;-68
2022/04/25 06:54:31;;;;;;;16.02;12.43;;;;;;;;;;5260004;28;20025;-68
2022/04/25 06:57:02;;;;;;;17.60;12.60;;;;;;;;;;5259536;28;20118;-68
2022/04/25 06:59:33;;;;;;;21.45;12.82;;;;;;;;;;5260307;28;20090;-69
2022/04/25 07:02:05;;;;;;;17.02;12.27;;;;;;;;;;5260773;28;20088;-69
2022/04/25 07:04:36;;;;;;;22.27;13.88;;;;;;;;;;5259519;28;20435;-68
2022/04/25 07:07:07;;;;;;;15.55;12.20;;;;;;;;;;5260489;28;20025;-68
2022/04/25 07:09:39;;;;;;;16.52;13.05;;;;;;;;;;5259912;28;20032;-68
2022/04/25 07:12:11;;;;;;;17.98;13.75;;;;;;;;;;5259431;28;20027;-68
2022/04/25 07:14:42;;;;;;;18.35;13.98;;;;;;;;;;5259531;28;20106;-70
2022/04/25 07:17:13;;;;;;;16.95;13.43;;;;;;;;;;5260271;28;20021;-68
2022/04/25 07:19:44;;;;;;;17.38;14.55;;;;;;;;;;5258924;28;20094;-68
2022/04/25 07:30:45;;;;;;;15.70;12.75;;;;;;;;;;5259829;28;20020;-69
2022/04/25 07:33:17;;;;;;;17.08;15.13;;;;;;;;;;5264736;28;20483;-68
2022/04/25 07:35:48;;;;;;;20.08;13.95;;;;;;;;;;5279871;28;20024;-68
2022/04/25 07:38:19;;;;;;;21.00;14.90;;;;;;;;;;5280532;28;20052;-69
2022/04/25 07:40:50;;;;;;;19.40;15.20;;;;;;;;;;5280083;28;20323;-69
2022/04/25 07:43:21;;;;;;;20.45;15.77;;;;;;;;;;5281027;28;20090;-69
2022/04/25 07:45:53;;;;;;;19.52;15.90;;;;;;;;;;5281271;28;20259;-69
2022/04/25 07:48:25;;;;;;;22.45;15.82;;;;;;;;;;5279802;28;20024;-69
2022/04/25 07:50:56;;;;;;;19.48;15.57;;;;;;;;;;5281215;28;20718;-69
2022/04/25 07:53:30;;;;;;;18.95;15.88;;;;;;;;;;5279908;28;20036;-69
2022/04/25 07:56:01;;;;;;;26.13;16.40;;;;;;;;;;5281146;28;20263;-70
2022/04/25 07:58:34;;;;;;;18.88;15.57;;;;;;;;;;5280388;28;20025;-70
2022/04/25 08:01:05;;;;;;;18.52;15.50;;;;;;;;;;5280096;28;20330;-71
2022/04/25 08:03:36;;;;;;;20.70;16.05;;;;;;;;;;5280391;28;20419;-70
2022/04/25 08:06:07;;;;;;;19.67;15.80;;;;;;;;;;5280958;28;20031;-67
2022/04/25 08:08:38;;;;;;;19.73;15.88;;;;;;;;;;5279401;28;20639;-69
2022/04/25 08:11:11;;;;;;;22.13;15.65;;;;;;;;;;5284377;28;20753;-70
2022/04/25 08:19:22;;;;;;;21.10;17.63;;;;;;;;;;5242500;28;20033;-70
2022/04/25 08:21:54;;;;;;;19.88;16.75;;;;;;;;;;5241878;28;20017;-70
2022/04/25 08:24:26;;;;;;;22.75;18.92;;;;;;;;;;5242293;28;20362;-69
2022/04/25 08:26:57;;;;;;;26.55;20.13;;;;;;;;;;5242927;28;20024;-69
2022/04/25 08:29:28;;;;;;;22.23;19.75;;;;;;;;;;5241640;28;20026;-69
2022/04/25 08:31:59;;;;;;;27.05;22.63;;;;;;;;;;5242637;28;20025;-69
2022/04/25 08:34:30;;;;;;;25.17;21.77;;;;;;;;;;5238482;28;20288;-69
2022/04/25 08:37:02;;;;;;;26.00;22.35;;;;;;;;;;5224440;28;20025;-69
2022/04/25 08:39:34;;;;;;;25.90;22.40;;;;;;;;;;5220752;28;20025;-71
2022/04/25 08:42:09;;;;;;;30.58;24.05;;;;;;;;;;5221513;28;20022;-69
2022/04/25 08:44:40;;;;;;;25.83;23.02;;;;;;;;;;5241152;28;20037;-69
2022/04/25 08:47:14;;;;;;;26.90;23.95;;;;;;;;;;5242401;28;20060;-70
2022/04/25 08:49:45;;;;;;;25.85;23.02;;;;;;;;;;5241195;28;20022;-70
2022/04/25 08:52:17;;;;;;;27.58;24.10;;;;;;;;;;5242322;28;20040;-70
2022/04/25 08:54:49;;;;;;;26.05;23.13;;;;;;;;;;5240461;28;20112;-70
2022/04/25 08:57:20;;;;;;;30.25;24.17;;;;;;;;;;5241081;28;20535;-70
2022/04/25 08:59:54;;;;;;;27.58;24.45;;;;;;;;;;5242013;28;20029;-69
2022/04/25 09:02:26;;;;;;;30.60;25.13;;;;;;;;;;5241775;28;20025;-69
2022/04/25 09:04:57;;;;;;;27.77;23.90;;;;;;;;;;5241817;28;20022;-69
2022/04/25 09:07:28;;;;;;;27.88;24.15;;;;;;;;;;5241689;28;20140;-68
2022/04/25 09:09:59;;;;;;;26.38;23.15;;;;;;;;;;5242123;28;20120;-69
2022/04/25 09:12:31;;;;;;;28.42;22.77;;;;;;;;;;5240640;28;20496;-69
2022/04/25 09:15:03;;;;;;;29.17;25.25;;;;;;;;;;5261189;28;20487;-69
2022/04/25 09:17:38;;;;;;;26.13;22.85;;;;;;;;;;5282068;28;20016;-69
2022/04/25 09:20:10;;;;;;;28.50;24.98;;;;;;;;;;5283445;28;20521;-69
2022/04/25 09:22:41;;;;;;;28.65;25.52;;;;;;;;;;5281741;28;20020;-69
2022/04/25 09:25:13;;;;;;;30.33;24.60;;;;;;;;;;5282562;28;20029;-70
2022/04/25 09:27:47;;;;;;;30.58;24.80;;;;;;;;;;5282794;28;20661;-69
2022/04/25 09:30:21;;;;;;;31.73;25.98;;;;;;;;;;5283469;28;20016;-69
2022/04/25 09:32:52;;;;;;;30.90;25.20;;;;;;;;;;5282233;28;20092;-69
2022/04/25 09:35:28;;;;;;;34.67;26.35;;;;;;;;;;5282391;28;20120;-70
2022/04/25 09:38:00;;;;;;;31.88;26.45;;;;;;;;;;5283011;28;20011;-69
2022/04/25 09:40:32;;;;;;;29.70;24.65;;;;;;;;;;5281427;28;20077;-70
2022/04/25 09:43:16;;;;;;;29.65;24.13;;;;;;;;;;5282870;28;20471;-70
2022/04/25 09:45:47;;;;;;;29.17;23.13;;;;;;;;;;5281705;28;20024;-69
2022/04/25 09:48:23;;;;;;;29.80;25.85;;;;;;;;;;5282372;28;20043;-71
2022/04/25 09:51:04;;;;;;;32.38;25.23;;;;;;;;;;5282871;28;20024;-70
2022/04/25 09:53:54;;;;;;;29.42;24.33;;;;;;;;;;5281190;28;20028;-69
2022/04/25 09:56:27;;;;;;;26.75;23.83;;;;;;;;;;5282116;28;20044;-70
2022/04/25 09:59:08;;;;;;;30.05;24.20;;;;;;;;;;5282602;28;20020;-69
2022/04/25 10:01:39;;;;;;;29.20;24.65;;;;;;;;;;5281254;28;20130;-68
2022/04/25 10:04:32;;;;;;;26.38;23.48;;;;;;;;;;5282343;28;20040;-69
2022/04/25 10:07:04;;;;;;;24.75;22.08;;;;;;;;;;5281799;28;20029;-71
2022/04/25 10:09:35;;;;;;;27.15;24.25;;;;;;;;;;5281626;28;20070;-69
2022/04/25 10:12:07;;;;;;;22.52;20.35;;;;;;;;;;5282022;28;20089;-69
2022/04/25 10:14:39;;;;;;;26.13;23.38;;;;;;;;;;5280671;28;20403;-69
2022/04/25 10:17:11;;;;;;;24.00;21.63;;;;;;;;;;5282387;28;20020;-69
2022/04/25 10:19:43;;;;;;;23.88;21.42;;;;;;;;;;5281795;28;20032;-69
2022/04/25 10:22:15;;;;;;;23.23;20.95;;;;;;;;;;5281341;28;20527;-69
2022/04/25 10:24:46;;;;;;;24.70;22.00;;;;;;;;;;5281617;28;20245;-69
2022/04/25 10:27:18;;;;;;;23.42;21.12;;;;;;;;;;5281803;28;20501;-68
2022/04/25 10:29:51;;;;;;;24.95;22.30;;;;;;;;;;5279567;28;20017;-68
2022/04/25 10:32:23;;;;;;;26.67;23.50;;;;;;;;;;5279945;28;20110;-70
2022/04/25 10:34:59;;;;;;;26.80;22.83;;;;;;;;;;5280640;28;20479;-69
2022/04/25 10:37:31;;;;;;;25.30;22.67;;;;;;;;;;5280181;28;20033;-70
2022/04/25 10:40:05;;;;;;;25.13;22.42;;;;;;;;;;5281420;28;20033;-69
2022/04/25 10:45:45;;;;;;;;;;;;;;;;;;5281690;28;20388;-69
2022/04/25 10:48:17;;;;;;;23.50;21.00;;;;;;;;;;5281685;28;19905;-68
2022/04/25 10:51:07;;;;;;;24.80;21.60;;;;;;;;;;5280249;28;20050;-69
2022/04/25 10:54:01;;;;;;;23.83;21.00;;;;;;;;;;5281097;28;20044;-68
2022/04/25 10:56:32;;;;;;;24.02;20.85;;;;;;;;;;5280181;28;20017;-69
2022/04/25 10:59:22;;;;;;;27.88;22.35;;;;;;;;;;5281425;28;20013;-69
2022/04/25 11:01:56;;;;;;;24.38;21.77;;;;;;;;;;5281377;28;20027;-69
2022/04/25 11:04:28;;;;;;;26.20;22.58;;;;;;;;;;5280028;28;20449;-69
2022/04/25 11:07:17;;;;;;;25.63;22.83;;;;;;;;;;5281507;28;20083;-69
2022/04/25 11:09:49;;;;;;;27.23;23.10;;;;;;;;;;5281256;28;20036;-69
2022/04/25 11:12:40;;;;;;;25.27;22.23;;;;;;;;;;5280558;28;20033;-69
2022/04/25 11:15:11;;;;;;;25.52;22.73;;;;;;;;;;5281065;28;20395;-69
2022/04/25 11:18:02;;;;;;;20.52;18.33;;;;;;;;;;5280309;28;20037;-68
2022/04/25 11:20:55;;;;;;;21.63;19.40;;;;;;;;;;5280650;28;20300;-69
2022/04/25 11:23:28;;;;;;;23.60;21.05;;;;;;;;;;5280700;28;20017;-68
2022/04/25 11:26:01;;;;;;;24.17;19.80;;;;;;;;;;5280858;28;20114;-68
2022/04/25 11:28:35;;;;;;;24.42;20.23;;;;;;;;;;5281031;28;20447;-68
2022/04/25 11:31:15;;;;;;;22.58;20.10;;;;;;;;;;5280586;28;20020;-69
2022/04/25 11:33:47;;;;;;;20.15;18.13;;;;;;;;;;5280593;28;20110;-68
2022/04/25 11:36:19;;;;;;;20.70;18.52;;;;;;;;;;5280816;28;20109;-68
2022/04/25 11:41:41;;;;;;;22.58;19.02;;;;;;;;;;5280854;28;20503;-68
2022/04/25 11:44:13;;;;;;;21.02;18.67;;;;;;;;;;5281631;28;20103;-68
2022/04/25 11:46:46;;;;;;;22.27;18.95;;;;;;;;;;5283685;28;20012;-68
2022/04/25 11:49:27;;;;;;;22.88;19.85;;;;;;;;;;5285451;28;20024;-68
2022/04/25 11:52:00;;;;;;;21.98;19.05;;;;;;;;;;5285286;28;20027;-68
2022/04/25 11:54:32;;;;;;;23.85;20.25;;;;;;;;;;5283647;28;20111;-68
2022/04/25 11:57:03;;;;;;;22.58;19.65;;;;;;;;;;5284877;28;20097;-68
2022/04/25 11:59:35;;;;;;;21.80;19.17;;;;;;;;;;5283860;28;20027;-68
2022/04/25 12:02:07;;;;;;;24.45;18.38;;;;;;;;;;5285111;28;20044;-68
2022/04/25 12:04:39;;;;;;;25.02;21.35;;;;;;;;;;5284284;28;20416;-68
2022/04/25 12:07:11;;;;;;;24.00;20.30;;;;;;;;;;5283685;28;20025;-68
2022/04/25 12:15:35;;;;;;;24.48;20.75;;;;;;;;;;5283137;28;20503;-67
2022/04/25 12:18:12;;;;;;;24.15;19.80;;;;;;;;;;5284887;28;20097;-70
2022/04/25 12:20:46;;;;;;;22.50;20.15;;;;;;;;;;5282948;28;20071;-70
2022/04/25 12:23:27;;;;;;;24.17;21.25;;;;;;;;;;5284383;28;20055;-70
2022/04/25 12:26:02;;;;;;;26.63;22.15;;;;;;;;;;5284276;28;20025;-70
2022/04/25 12:28:37;;;;;;;24.83;22.15;;;;;;;;;;5283240;28;20016;-70
2022/04/25 12:31:09;;;;;;;26.23;20.25;;;;;;;;;;5284456;28;20428;-68
2022/04/25 12:33:42;;;;;;;25.27;20.60;;;;;;;;;;5283693;28;20929;-69
2022/04/25 12:36:27;;;;;;;24.42;20.45;;;;;;;;;;5283333;28;20051;-69
2022/04/25 12:39:03;;;;;;;23.63;21.00;;;;;;;;;;5284124;28;20484;-70
2022/04/25 12:41:38;;;;;;;28.02;22.08;;;;;;;;;;5282765;28;20044;-69
2022/04/25 12:44:09;;;;;;;27.77;20.33;;;;;;;;;;5283856;28;20028;-69
2022/04/25 12:46:42;;;;;;;23.05;20.40;;;;;;;;;;5283235;28;20021;-68
2022/04/25 12:49:20;;;;;;;21.08;18.92;;;;;;;;;;5283232;28;20291;-69
2022/04/25 12:51:52;;;;;;;22.48;19.98;;;;;;;;;;5283595;28;20020;-69
2022/04/25 12:54:41;;;;;;;22.45;19.92;;;;;;;;;;5283121;28;20389;-69
2022/04/25 12:57:16;;;;;;;22.38;19.80;;;;;;;;;;5282524;28;20025;-69
2022/04/25 12:59:53;;;;;;;23.73;20.52;;;;;;;;;;5283012;28;20025;-69
2022/04/25 13:02:32;;;;;;;24.02;21.52;;;;;;;;;;5282803;28;20021;-68
2022/04/25 13:05:04;;;;;;;23.65;20.90;;;;;;;;;;5283536;28;20020;-69
2022/04/25 13:07:37;;;;;;;24.80;21.70;;;;;;;;;;5282909;28;20032;-69
2022/04/25 13:10:11;;;;;;;26.52;21.10;;;;;;;;;;5283002;28;20024;-69
2022/04/25 13:12:43;;;;;;;22.63;20.23;;;;;;;;;;5283051;28;20544;-69
2022/04/25 13:15:17;;;;;;;24.58;21.38;;;;;;;;;;5283473;28;20521;-69
2022/04/25 13:17:49;;;;;;;24.95;21.35;;;;;;;;;;5282341;28;20467;-69
2022/04/25 13:20:21;;;;;;;23.85;20.02;;;;;;;;;;5283135;28;20023;-69
2022/04/25 13:22:52;;;;;;;19.80;16.90;;;;;;;;;;5283283;28;20030;-69
2022/04/25 13:25:23;;;;;;;21.70;19.33;;;;;;;;;;5282215;28;20379;-69
2022/04/25 13:27:55;;;;;;;21.10;18.33;;;;;;;;;;5283327;28;20016;-69
2022/04/25 13:30:26;;;;;;;18.92;16.63;;;;;;;;;;5282780;28;20471;-69
2022/04/25 13:32:58;;;;;;;20.23;17.38;;;;;;;;;;5282693;28;20032;-69
2022/04/25 13:35:29;;;;;;;18.33;15.95;;;;;;;;;;5282769;28;20027;-69
2022/04/25 13:38:00;;;;;;;19.50;17.35;;;;;;;;;;5282439;28;20271;-69
2022/04/25 13:40:31;;;;;;;18.92;16.85;;;;;;;;;;5282668;28;20016;-69
2022/04/25 13:43:04;;;;;;;18.70;16.75;;;;;;;;;;5282878;28;20502;-69
2022/04/25 13:45:36;;;;;;;18.40;16.48;;;;;;;;;;5281599;28;20263;-70
2022/04/25 13:48:07;;;;;;;20.38;17.27;;;;;;;;;;5282903;28;20375;-68
2022/04/25 13:50:38;;;;;;;21.98;16.30;;;;;;;;;;5282288;28;20367;-69
2022/04/25 13:53:10;;;;;;;17.45;15.68;;;;;;;;;;5281900;28;20059;-68
2022/04/25 13:55:41;;;;;;;18.23;16.42;;;;;;;;;;5281835;28;20031;-69
2022/04/25 13:58:14;;;;;;;17.00;15.27;;;;;;;;;;5282760;28;20325;-69
2022/04/25 14:00:45;;;;;;;19.38;15.27;;;;;;;;;;5281267;28;20392;-69
2022/04/25 14:03:16;;;;;;;19.40;15.30;;;;;;;;;;5282713;28;20036;-69
2022/04/25 14:05:50;;;;;;;18.30;15.38;;;;;;;;;;5281789;28;20219;-68
2022/04/25 14:08:22;;;;;;;17.80;15.93;;;;;;;;;;5281081;28;20447;-69
2022/04/25 14:10:54;;;;;;;18.02;16.10;;;;;;;;;;5282491;28;20052;-69
2022/04/25 14:13:30;;;;;;;15.30;13.73;;;;;;;;;;5280951;28;20024;-68
2022/04/25 14:16:01;;;;;;;17.05;14.82;;;;;;;;;;5281816;28;20140;-68
2022/04/25 14:18:32;;;;;;;17.90;15.90;;;;;;;;;;5281538;28;20091;-68
2022/04/25 14:21:06;;;;;;;21.88;16.80;;;;;;;;;;5281503;28;20051;-68
2022/04/25 14:23:38;;;;;;;20.50;18.00;;;;;;;;;;5281460;28;20062;-68
2022/04/25 14:26:09;;;;;;;20.73;17.05;;;;;;;;;;5281815;28;20459;-68
2022/04/25 14:28:41;;;;;;;24.33;19.05;;;;;;;;;;5280609;28;20416;-68
2022/04/25 14:31:12;;;;;;;27.42;21.85;;;;;;;;;;5281862;28;20025;-68
2022/04/25 14:33:43;;;;;;;27.73;20.90;;;;;;;;;;5281040;28;20036;-69
2022/04/25 14:36:14;;;;;;;28.73;22.85;;;;;;;;;;5281071;28;20085;-69
2022/04/25 14:38:45;;;;;;;31.95;22.70;;;;;;;;;;5280993;28;20373;-69
2022/04/25 14:41:17;;;;;;;26.48;21.15;;;;;;;;;;5280902;28;20020;-68
2022/04/25 14:43:48;;;;;;;27.63;21.63;;;;;;;;;;5281382;28;20672;-69
2022/04/25 14:46:19;;;;;;;25.40;21.30;;;;;;;;;;5281577;28;20350;-69
2022/04/25 14:48:50;;;;;;;26.65;20.30;;;;;;;;;;5280577;28;20083;-69
2022/04/25 14:54:21;;;;;;;25.17;20.63;;;;;;;;;;5281356;28;20294;-69
2022/04/25 14:56:52;;;;;;;28.10;21.00;;;;;;;;;;5280695;28;20021;-69
2022/04/25 14:59:23;;;;;;;24.80;19.55;;;;;;;;;;5281247;28;20135;-69
2022/04/25 15:01:55;;;;;;;23.80;19.65;;;;;;;;;;5281407;28;20013;-69
2022/04/25 15:04:26;;;;;;;28.13;21.60;;;;;;;;;;5280711;28;20474;-69
2022/04/25 15:06:57;;;;;;;23.15;19.42;;;;;;;;;;5281570;28;20043;-70
2022/04/25 15:09:29;;;;;;;22.92;18.00;;;;;;;;;;5280317;28;20081;-71
2022/04/25 15:12:00;;;;;;;24.75;19.83;;;;;;;;;;5281442;28;20021;-69
2022/04/25 15:14:31;;;;;;;21.95;18.30;;;;;;;;;;5280579;28;20109;-69
2022/04/25 15:17:03;;;;;;;22.70;18.42;;;;;;;;;;5280637;28;20114;-69
2022/04/25 15:19:37;;;;;;;21.42;18.75;;;;;;;;;;5283419;28;20271;-69
2022/04/25 15:22:08;;;;;;;25.73;18.38;;;;;;;;;;5285702;28;20016;-70
2022/04/25 15:24:39;;;;;;;24.25;19.25;;;;;;;;;;5284272;28;20024;-69
2022/04/25 15:27:10;;;;;;;20.77;18.20;;;;;;;;;;5285489;28;20308;-69
2022/04/25 15:29:43;;;;;;;24.02;18.30;;;;;;;;;;5285326;28;20294;-69
2022/04/25 15:32:15;;;;;;;21.17;17.80;;;;;;;;;;5284797;28;20443;-70
2022/04/25 15:34:47;;;;;;;23.35;18.30;;;;;;;;;;5284939;28;20060;-70
2022/04/25 15:37:18;;;;;;;22.67;17.75;;;;;;;;;;5284506;28;20078;-69